createdAt,value
2022-09-16T00:01:21.802Z,11.78
2022-09-16T00:04:02.474Z,11.79
2022-09-16T00:06:41.904Z,11.79
2022-09-16T00:09:35.486Z,11.72
2022-09-16T00:12:14.931Z,11.77
2022-09-16T00:14:56.849Z,11.74
2022-09-16T00:17:37.811Z,11.75
2022-09-16T00:20:17.769Z,11.74
2022-09-16T00:22:57.371Z,11.76
2022-09-16T00:25:39.188Z,11.74
2022-09-16T00:28:18.952Z,11.69
2022-09-16T00:31:01.340Z,11.71
2022-09-16T00:33:41.349Z,11.70
2022-09-16T00:36:21.185Z,11.63
2022-09-16T00:39:02.981Z,11.67
2022-09-16T00:41:41.218Z,11.62
2022-09-16T00:44:54.851Z,11.64
2022-09-16T00:47:37.196Z,11.58
2022-09-16T00:50:23.463Z,11.65
2022-09-16T00:53:03.211Z,11.62
2022-09-16T00:55:43.508Z,11.56
2022-09-16T00:58:27.656Z,11.57
2022-09-16T01:01:09.653Z,11.61
2022-09-16T01:03:53.906Z,11.61
2022-09-16T01:06:37.340Z,11.57
2022-09-16T01:09:19.412Z,11.58
2022-09-16T01:12:01.590Z,11.56
2022-09-16T01:14:59.585Z,11.62
2022-09-16T01:17:54.044Z,11.61
2022-09-16T01:20:51.018Z,11.61
2022-09-16T01:24:08.423Z,11.66
2022-09-16T01:27:26.434Z,11.63
2022-09-16T01:30:45.747Z,11.61
2022-09-16T01:33:34.245Z,11.65
2022-09-16T01:36:31.269Z,11.65
2022-09-16T01:39:24.358Z,11.67
2022-09-16T01:42:12.844Z,11.67
2022-09-16T01:44:58.000Z,11.69
2022-09-16T01:47:45.573Z,11.68
2022-09-16T01:50:28.709Z,11.72
2022-09-16T01:53:13.419Z,11.75
2022-09-16T01:55:59.504Z,11.79
2022-09-16T01:58:44.428Z,11.76
2022-09-16T02:01:26.385Z,11.76
2022-09-16T02:04:11.235Z,11.77
2022-09-16T02:06:52.835Z,11.83
2022-09-16T02:09:36.006Z,11.80
2022-09-16T02:12:19.036Z,11.79
2022-09-16T02:15:04.539Z,11.80
2022-09-16T02:18:08.853Z,11.81
2022-09-16T02:20:49.921Z,11.73
2022-09-16T02:23:33.736Z,11.76
2022-09-16T02:26:17.366Z,11.82
2022-09-16T02:28:57.053Z,11.82
2022-09-16T02:31:39.673Z,11.89
2022-09-16T02:34:25.185Z,11.89
2022-09-16T02:37:12.352Z,11.92
2022-09-16T02:39:54.841Z,11.93
2022-09-16T02:42:36.946Z,11.92
2022-09-16T02:45:16.814Z,11.94
2022-09-16T02:48:03.121Z,11.94
2022-09-16T02:50:45.119Z,11.88
2022-09-16T02:53:31.657Z,11.88
2022-09-16T02:56:16.175Z,11.89
2022-09-16T02:58:56.325Z,11.82
2022-09-16T03:01:41.882Z,11.86
2022-09-16T03:04:22.387Z,11.85
2022-09-16T03:07:04.324Z,11.82
2022-09-16T03:09:45.429Z,11.77
2022-09-16T03:12:43.401Z,11.70
2022-09-16T03:15:31.077Z,11.74
2022-09-16T03:18:27.181Z,11.73
2022-09-16T03:21:14.735Z,11.71
2022-09-16T03:23:59.673Z,11.58
2022-09-16T03:26:46.946Z,11.63
2022-09-16T03:29:28.921Z,11.54
2022-09-16T03:32:15.282Z,11.59
2022-09-16T03:34:59.027Z,11.63
2022-09-16T03:37:39.144Z,11.66
2022-09-16T03:40:20.618Z,11.69
2022-09-16T03:42:59.854Z,11.69
2022-09-16T03:45:40.609Z,11.69
2022-09-16T03:48:20.737Z,11.68
2022-09-16T03:51:02.459Z,11.70
2022-09-16T03:53:41.976Z,11.71
2022-09-16T03:56:25.403Z,11.75
2022-09-16T03:59:04.712Z,11.75
2022-09-16T04:01:46.891Z,11.77
2022-09-16T04:04:29.530Z,11.79
2022-09-16T04:07:08.942Z,11.82
2022-09-16T04:10:02.779Z,11.80
2022-09-16T04:12:43.951Z,11.78
2022-09-16T04:15:25.368Z,11.75
2022-09-16T04:18:04.844Z,11.82
2022-09-16T04:20:44.923Z,11.81
2022-09-16T04:23:26.719Z,11.83
2022-09-16T04:26:07.580Z,11.81
2022-09-16T04:28:47.865Z,11.77
2022-09-16T04:31:27.023Z,11.88
2022-09-16T04:34:08.792Z,11.82
2022-09-16T04:36:50.207Z,11.89
2022-09-16T04:39:29.617Z,11.92
2022-09-16T04:42:12.199Z,11.92
2022-09-16T04:44:52.442Z,11.86
2022-09-16T04:47:32.272Z,11.83
2022-09-16T04:50:12.213Z,11.87
2022-09-16T04:52:52.353Z,11.88
2022-09-16T04:55:32.291Z,11.89
2022-09-16T04:58:11.469Z,11.89
2022-09-16T05:00:51.535Z,11.95
2022-09-16T05:03:31.098Z,11.97
2022-09-16T05:06:12.080Z,11.99
2022-09-16T05:09:04.902Z,12.04
2022-09-16T05:11:47.441Z,12.04
2022-09-16T05:14:26.853Z,12.05
2022-09-16T05:17:08.674Z,12.07
2022-09-16T05:19:48.083Z,12.06
2022-09-16T05:22:27.915Z,12.09
2022-09-16T05:25:08.790Z,12.06
2022-09-16T05:27:49.150Z,12.14
2022-09-16T05:30:28.895Z,12.16
2022-09-16T05:33:10.901Z,12.19
2022-09-16T05:35:50.127Z,12.17
2022-09-16T05:38:29.955Z,12.21
2022-09-16T05:41:09.859Z,12.27
2022-09-16T05:43:49.778Z,12.26
2022-09-16T05:46:31.528Z,12.27
2022-09-16T05:49:11.464Z,12.30
2022-09-16T05:51:50.786Z,12.29
2022-09-16T05:54:31.392Z,12.32
2022-09-16T05:57:11.790Z,12.21
2022-09-16T05:59:53.617Z,12.31
2022-09-16T06:02:33.276Z,12.32
2022-09-16T06:05:13.570Z,12.34
2022-09-16T06:07:58.456Z,12.41
2022-09-16T06:10:42.063Z,12.39
2022-09-16T06:13:23.921Z,12.48
2022-09-16T06:16:06.538Z,12.51
2022-09-16T06:18:45.028Z,12.53
2022-09-16T06:21:24.926Z,12.57
2022-09-16T06:24:08.902Z,12.65
2022-09-16T06:26:49.459Z,12.65
2022-09-16T06:29:30.689Z,12.61
2022-09-16T06:32:08.859Z,12.69
2022-09-16T06:34:48.347Z,12.70
2022-09-16T06:37:28.239Z,12.70
2022-09-16T06:40:09.033Z,12.75
2022-09-16T06:42:49.341Z,12.76
2022-09-16T06:45:29.436Z,12.73
2022-09-16T06:48:08.955Z,12.67
2022-09-16T06:50:48.745Z,12.66
2022-09-16T06:53:29.621Z,12.61
2022-09-16T06:56:14.670Z,12.76
2022-09-16T06:58:55.653Z,12.76
2022-09-16T07:01:36.275Z,12.73
2022-09-16T07:04:15.780Z,12.75
2022-09-16T07:07:15.032Z,12.80
2022-09-16T07:09:57.053Z,12.85
2022-09-16T07:12:37.569Z,12.91
2022-09-16T07:15:17.395Z,12.97
2022-09-16T07:17:57.245Z,13.00
2022-09-16T07:20:39.075Z,13.07
2022-09-16T07:23:20.435Z,13.04
2022-09-16T07:26:04.216Z,13.07
2022-09-16T07:28:47.136Z,13.06
2022-09-16T07:31:28.847Z,13.19
2022-09-16T07:34:10.188Z,13.21
2022-09-16T07:36:51.423Z,13.29
2022-09-16T07:39:31.688Z,13.35
2022-09-16T07:42:11.464Z,13.36
2022-09-16T07:44:51.331Z,13.44
2022-09-16T07:47:31.167Z,13.51
2022-09-16T07:50:11.294Z,13.63
2022-09-16T07:52:55.886Z,13.76
2022-09-16T07:55:37.414Z,13.85
2022-09-16T07:58:28.551Z,13.99
2022-09-16T08:01:08.842Z,14.12
2022-09-16T08:03:48.445Z,14.26
2022-09-16T08:06:30.839Z,14.35
2022-09-16T08:09:37.870Z,14.45
2022-09-16T08:12:14.597Z,14.60
2022-09-16T08:14:54.721Z,14.72
2022-09-16T08:17:34.353Z,14.93
2022-09-16T08:20:16.627Z,15.06
2022-09-16T08:22:58.136Z,15.26
2022-09-16T08:25:38.581Z,15.43
2022-09-16T08:28:18.640Z,15.64
2022-09-16T08:31:00.164Z,15.60
2022-09-16T08:33:42.188Z,15.86
2022-09-16T08:36:25.615Z,15.93
2022-09-16T08:39:05.627Z,16.17
2022-09-16T08:42:00.073Z,16.31
2022-09-16T08:45:11.136Z,16.61
2022-09-16T08:48:01.255Z,16.71
2022-09-16T08:50:42.812Z,16.85
2022-09-16T08:53:27.777Z,17.00
2022-09-16T08:56:11.927Z,17.27
2022-09-16T08:58:57.001Z,17.37
2022-09-16T09:01:43.788Z,17.63
2022-09-16T09:04:23.892Z,17.87
2022-09-16T09:07:09.806Z,17.89
2022-09-16T09:09:57.648Z,18.09
2022-09-16T09:12:41.698Z,18.20
2022-09-16T09:15:31.503Z,18.24
2022-09-16T09:18:18.560Z,18.22
2022-09-16T09:21:11.702Z,18.06
2022-09-16T09:24:13.824Z,17.99
2022-09-16T09:27:00.288Z,18.32
2022-09-16T09:30:05.077Z,18.67
2022-09-16T09:33:01.715Z,19.00
2022-09-16T09:35:53.799Z,19.12
2022-09-16T09:38:50.656Z,19.44
2022-09-16T09:41:47.012Z,19.44
2022-09-16T09:44:55.273Z,19.44
2022-09-16T09:47:40.905Z,19.45
2022-09-16T09:50:29.562Z,19.51
2022-09-16T09:53:18.132Z,19.66
2022-09-16T09:56:05.271Z,19.74
2022-09-16T09:58:50.640Z,20.00
2022-09-16T10:01:31.162Z,20.05
2022-09-16T10:04:13.432Z,20.04
2022-09-16T10:07:14.879Z,20.01
2022-09-16T10:09:56.617Z,20.07
2022-09-16T10:12:36.963Z,20.41
2022-09-16T10:15:23.187Z,20.48
2022-09-16T10:18:11.851Z,20.79
2022-09-16T10:21:00.025Z,20.78
2022-09-16T10:23:41.021Z,20.66
2022-09-16T10:26:22.384Z,20.79
2022-09-16T10:29:16.384Z,20.98
2022-09-16T10:31:55.524Z,21.12
2022-09-16T10:34:40.016Z,21.20
2022-09-16T10:37:21.526Z,21.53
2022-09-16T10:40:05.252Z,21.39
2022-09-16T10:42:47.695Z,21.58
2022-09-16T10:45:29.615Z,21.50
2022-09-16T10:48:14.125Z,21.51
2022-09-16T10:50:55.547Z,21.30
2022-09-16T10:53:39.416Z,21.00
2022-09-16T10:56:23.061Z,20.94
2022-09-16T10:59:09.877Z,21.11
2022-09-16T11:01:56.141Z,21.32
2022-09-16T11:04:54.401Z,21.53
2022-09-16T11:07:43.430Z,21.84
2022-09-16T11:10:30.481Z,21.95
2022-09-16T11:13:32.332Z,22.35
2022-09-16T11:16:22.824Z,22.10
2022-09-16T11:19:08.096Z,22.38
2022-09-16T11:21:57.082Z,22.74
2022-09-16T11:25:16.327Z,23.26
2022-09-16T11:28:00.828Z,23.21
2022-09-16T11:30:43.724Z,23.27
2022-09-16T11:33:27.727Z,23.17
2022-09-16T11:36:21.025Z,22.98
2022-09-16T11:39:12.528Z,22.75
2022-09-16T11:42:02.240Z,22.14
2022-09-16T11:44:48.097Z,21.89
2022-09-16T11:47:41.563Z,21.20
2022-09-16T11:50:30.218Z,20.99
2022-09-16T11:53:31.771Z,20.68
2022-09-16T11:56:16.752Z,20.75
2022-09-16T11:58:59.701Z,20.86
2022-09-16T12:01:44.297Z,21.11
2022-09-16T12:04:27.190Z,21.39
2022-09-16T12:07:12.831Z,21.64
2022-09-16T12:09:56.878Z,21.27
2022-09-16T12:12:39.943Z,21.35
2022-09-16T12:15:22.270Z,21.38
2022-09-16T12:18:03.422Z,21.51
2022-09-16T12:20:47.713Z,21.50
2022-09-16T12:23:29.903Z,21.39
2022-09-16T12:26:12.290Z,21.18
2022-09-16T12:28:55.701Z,21.02
2022-09-16T12:31:40.099Z,20.93
2022-09-16T12:34:24.882Z,20.54
2022-09-16T12:37:12.913Z,20.20
2022-09-16T12:39:52.142Z,19.89
2022-09-16T12:42:53.569Z,19.46
2022-09-16T12:46:34.702Z,19.12
2022-09-16T12:49:44.676Z,18.97
2022-09-16T12:52:34.178Z,18.89
2022-09-16T12:55:44.283Z,18.76
2022-09-16T12:58:49.744Z,18.44
2022-09-16T13:01:31.368Z,18.24
2022-09-16T13:04:16.488Z,18.03
2022-09-16T13:06:58.255Z,17.94
2022-09-16T13:09:40.711Z,17.91
2022-09-16T13:12:39.090Z,17.90
2022-09-16T13:15:27.366Z,18.35
2022-09-16T13:18:23.376Z,18.61
2022-09-16T13:21:07.987Z,19.06
2022-09-16T13:23:54.370Z,19.34
2022-09-16T13:26:48.390Z,19.47
2022-09-16T13:29:43.902Z,19.39
2022-09-16T13:32:43.313Z,19.40
2022-09-16T13:35:26.188Z,19.24
2022-09-16T13:38:23.092Z,19.27
2022-09-16T13:41:03.810Z,19.15
2022-09-16T13:44:01.268Z,19.09
2022-09-16T13:46:41.688Z,18.59
2022-09-16T13:49:23.681Z,18.45
2022-09-16T13:52:11.206Z,18.02
2022-09-16T13:55:10.070Z,18.15
2022-09-16T13:57:58.347Z,18.09
2022-09-16T14:00:39.272Z,18.09
2022-09-16T14:03:36.713Z,17.97
2022-09-16T14:06:45.960Z,17.69
2022-09-16T14:09:34.693Z,17.61
2022-09-16T14:12:19.935Z,17.71
2022-09-16T14:15:01.030Z,17.53
2022-09-16T14:17:42.319Z,17.43
2022-09-16T14:20:25.085Z,17.43
2022-09-16T14:23:06.993Z,17.38
2022-09-16T14:25:46.325Z,17.41
2022-09-16T14:28:27.673Z,17.27
2022-09-16T14:31:11.695Z,17.21
2022-09-16T14:36:56.763Z,17.07
2022-09-16T14:39:42.140Z,17.09
2022-09-16T14:42:25.173Z,17.00
2022-09-16T14:45:06.835Z,16.79
2022-09-16T14:47:52.797Z,16.78
2022-09-16T14:50:34.580Z,16.90
2022-09-16T14:53:34.747Z,16.92
2022-09-16T14:56:19.514Z,16.72
2022-09-16T14:58:59.194Z,16.62
2022-09-16T15:01:39.512Z,16.74
2022-09-16T15:04:25.555Z,16.74
2022-09-16T15:07:28.603Z,16.76
2022-09-16T15:10:39.784Z,16.66
2022-09-16T15:13:30.948Z,16.65
2022-09-16T15:16:13.908Z,16.58
2022-09-16T15:18:58.946Z,16.63
2022-09-16T15:21:39.744Z,16.56
2022-09-16T15:24:21.180Z,16.55
2022-09-16T15:27:01.563Z,16.55
2022-09-16T15:29:51.504Z,16.52
2022-09-16T15:32:32.092Z,16.36
2022-09-16T15:35:20.607Z,16.42
2022-09-16T15:38:12.007Z,16.37
2022-09-16T15:41:03.936Z,16.29
2022-09-16T15:43:47.052Z,16.26
2022-09-16T15:46:29.593Z,16.12
2022-09-16T15:49:13.441Z,16.12
2022-09-16T15:52:08.692Z,16.10
2022-09-16T15:54:50.720Z,16.04
2022-09-16T15:57:33.439Z,15.98
2022-09-16T16:00:26.255Z,15.93
2022-09-16T16:03:17.592Z,15.94
2022-09-16T16:05:58.319Z,15.87
2022-09-16T16:08:59.041Z,15.84
2022-09-16T16:11:38.364Z,15.81
2022-09-16T16:14:32.797Z,15.76
2022-09-16T16:17:15.215Z,15.73
2022-09-16T16:19:57.542Z,15.58
2022-09-16T16:22:37.590Z,15.57
2022-09-16T16:25:17.719Z,15.68
2022-09-16T16:27:58.983Z,15.56
2022-09-16T16:30:40.438Z,15.54
2022-09-16T16:33:32.270Z,15.41
2022-09-16T16:36:11.584Z,15.43
2022-09-16T16:38:51.682Z,15.42
2022-09-16T16:41:31.379Z,15.38
2022-09-16T16:44:31.631Z,15.40
2022-09-16T16:47:11.093Z,15.35
2022-09-16T16:49:51.714Z,15.34
2022-09-16T16:52:31.045Z,15.33
2022-09-16T16:55:13.886Z,15.34
2022-09-16T16:57:53.997Z,15.30
2022-09-16T17:00:34.195Z,15.30
2022-09-16T17:03:13.559Z,15.26
2022-09-16T17:05:53.328Z,15.21
2022-09-16T17:08:33.415Z,15.17
2022-09-16T17:11:13.427Z,15.15
2022-09-16T17:13:54.836Z,15.09
2022-09-16T17:16:35.112Z,15.02
2022-09-16T17:19:16.145Z,14.88
2022-09-16T17:21:57.577Z,14.80
2022-09-16T17:24:36.757Z,14.60
2022-09-16T17:27:19.656Z,14.45
2022-09-16T17:30:01.972Z,14.31
2022-09-16T17:32:43.712Z,14.23
2022-09-16T17:35:23.999Z,14.14
2022-09-16T17:38:07.066Z,14.02
2022-09-16T17:40:46.828Z,14.04
2022-09-16T17:43:32.212Z,13.93
2022-09-16T17:46:17.096Z,13.89
2022-09-16T17:49:13.722Z,13.75
2022-09-16T17:51:55.935Z,13.64
2022-09-16T17:54:35.187Z,13.65
2022-09-16T17:57:15.074Z,13.54
2022-09-16T17:59:55.003Z,13.49
2022-09-16T18:02:35.145Z,13.44
2022-09-16T18:05:16.906Z,13.44
2022-09-16T18:07:59.401Z,13.35
2022-09-16T18:10:38.833Z,13.31
2022-09-16T18:13:18.637Z,13.30
2022-09-16T18:16:02.886Z,13.25
2022-09-16T18:18:44.537Z,13.16
2022-09-16T18:21:25.145Z,13.08
2022-09-16T18:24:05.846Z,13.07
2022-09-16T18:27:26.937Z,12.94
2022-09-16T18:30:07.272Z,12.91
2022-09-16T18:32:59.267Z,12.82
2022-09-16T18:35:39.267Z,12.76
2022-09-16T18:38:18.851Z,12.64
2022-09-16T18:41:10.636Z,12.63
2022-09-16T18:43:55.205Z,12.64
2022-09-16T18:46:37.658Z,12.54
2022-09-16T18:49:18.660Z,12.49
2022-09-16T18:51:58.964Z,12.46
2022-09-16T18:54:39.283Z,12.41
2022-09-16T18:57:19.884Z,12.33
2022-09-16T18:59:59.738Z,12.24
2022-09-16T19:02:39.635Z,12.23
2022-09-16T19:05:19.957Z,12.24
2022-09-16T19:08:01.139Z,12.12
2022-09-16T19:10:40.522Z,12.16
2022-09-16T19:13:20.344Z,12.13
2022-09-16T19:16:00.292Z,12.11
2022-09-16T19:18:40.456Z,12.08
2022-09-16T19:21:20.831Z,12.09
2022-09-16T19:24:02.658Z,12.06
2022-09-16T19:26:43.775Z,12.05
2022-09-16T19:29:24.407Z,12.04
2022-09-16T19:32:03.897Z,12.02
2022-09-16T19:34:43.611Z,12.00
2022-09-16T19:37:24.173Z,11.99
2022-09-16T19:40:05.254Z,11.93
2022-09-16T19:42:44.617Z,11.97
2022-09-16T19:45:27.869Z,11.91
2022-09-16T19:48:07.456Z,11.92
2022-09-16T19:50:52.918Z,11.89
2022-09-16T19:53:34.757Z,11.79
2022-09-16T19:56:16.187Z,11.84
2022-09-16T19:58:56.349Z,11.82
2022-09-16T20:01:37.174Z,11.87
2022-09-16T20:04:19.526Z,11.84
2022-09-16T20:06:58.867Z,11.85
2022-09-16T20:09:40.722Z,11.84
2022-09-16T20:12:22.809Z,11.76
2022-09-16T20:15:03.316Z,11.78
2022-09-16T20:17:42.905Z,11.72
2022-09-16T20:20:22.732Z,11.75
2022-09-16T20:23:02.549Z,11.72
2022-09-16T20:25:44.320Z,11.76
2022-09-16T20:28:23.761Z,11.65
2022-09-16T20:31:04.390Z,11.71
2022-09-16T20:33:56.962Z,11.76
2022-09-16T20:36:39.607Z,11.75
2022-09-16T20:39:22.042Z,11.77
2022-09-16T20:42:04.885Z,11.69
2022-09-16T20:44:55.762Z,11.72
2022-09-16T20:47:35.515Z,11.65
2022-09-16T20:50:17.415Z,11.71
2022-09-16T20:52:56.935Z,11.69
2022-09-16T20:55:38.589Z,11.71
2022-09-16T20:58:17.948Z,11.68
2022-09-16T21:01:05.797Z,11.68
2022-09-16T21:03:51.479Z,11.72
2022-09-16T21:06:34.818Z,11.69
2022-09-16T21:09:18.822Z,11.67
2022-09-16T21:11:59.884Z,11.73
2022-09-16T21:14:40.322Z,11.73
2022-09-16T21:17:22.513Z,11.72
2022-09-16T21:20:04.537Z,11.72
2022-09-16T21:22:47.080Z,11.71
2022-09-16T21:25:26.478Z,11.69
2022-09-16T21:28:08.609Z,11.65
2022-09-16T21:30:49.402Z,11.70
2022-09-16T21:33:32.361Z,11.68
2022-09-16T21:36:14.962Z,11.71
2022-09-16T21:38:55.523Z,11.70
2022-09-16T21:41:37.371Z,11.67
2022-09-16T21:44:18.556Z,11.65
2022-09-16T21:46:57.667Z,11.67
2022-09-16T21:49:40.954Z,11.68
2022-09-16T21:52:22.469Z,11.69
2022-09-16T21:55:02.009Z,11.69
2022-09-16T21:57:41.697Z,11.71
2022-09-16T22:00:21.536Z,11.76
2022-09-16T22:03:01.643Z,11.78
2022-09-16T22:05:41.111Z,11.74
2022-09-16T22:08:20.995Z,11.77
2022-09-16T22:11:03.944Z,11.74
2022-09-16T22:13:46.190Z,11.83
2022-09-16T22:16:28.697Z,11.79
2022-09-16T22:19:08.926Z,11.80
2022-09-16T22:21:50.972Z,11.79
2022-09-16T22:24:29.763Z,11.87
2022-09-16T22:27:09.269Z,11.90
2022-09-16T22:29:49.029Z,11.87
2022-09-16T22:32:29.267Z,11.89
2022-09-16T22:35:09.832Z,11.88
2022-09-16T22:37:50.289Z,11.95
2022-09-16T22:40:30.901Z,11.97
2022-09-16T22:43:13.233Z,11.99
2022-09-16T22:45:52.662Z,11.98
2022-09-16T22:48:32.681Z,11.96
2022-09-16T22:51:15.701Z,11.97
2022-09-16T22:53:55.815Z,11.91
2022-09-16T22:56:35.330Z,11.99
2022-09-16T22:59:19.298Z,11.99
2022-09-16T23:01:59.551Z,11.99
2022-09-16T23:04:39.292Z,11.99
2022-09-16T23:07:19.196Z,11.96
2022-09-16T23:10:00.941Z,12.00
2022-09-16T23:12:42.520Z,12.00
2022-09-16T23:15:21.809Z,11.97
2022-09-16T23:18:01.563Z,12.01
2022-09-16T23:20:40.137Z,12.01
2022-09-16T23:23:19.658Z,12.04
2022-09-16T23:26:02.735Z,12.03
2022-09-16T23:28:44.807Z,12.04
2022-09-16T23:31:28.629Z,12.04
2022-09-16T23:34:21.813Z,12.04
2022-09-16T23:37:01.986Z,12.05
2022-09-16T23:39:43.355Z,12.07
2022-09-16T23:42:22.835Z,12.07
2022-09-16T23:45:02.890Z,12.10
2022-09-16T23:47:42.513Z,12.15
2022-09-16T23:50:24.247Z,12.08
2022-09-16T23:53:03.600Z,12.09
2022-09-16T23:55:54.075Z,12.10
2022-09-16T23:58:35.213Z,12.10
